Time;durP1;ratioP1;P1;durP2;ratioP2;P2;SDS_P1;SDS_P2;PMS_P1;PMS_P2;Temp;Humidity;BMP_temperature;BMP_pressure;BME280_temperature;BME280_humidity;BME280_pressure;Samples;Min_cycle;Max_cycle;Signal;HPM_P1;HPM_P2
2023/05/22 00:01:36;;;;;;;14.40;8.38;;;;;;;;;;5011049;28;20049;-86
2023/05/22 00:04:03;;;;;;;13.38;8.00;;;;;;;;;;5014715;28;20048;-86
2023/05/22 00:06:30;;;;;;;13.63;8.23;;;;;;;;;;5014636;28;20050;-86
2023/05/22 00:08:56;;;;;;;11.70;8.18;;;;;;;;;;5013904;28;20050;-84
2023/05/22 00:11:23;;;;;;;13.00;8.27;;;;;;;;;;5014699;28;20069;-84
2023/05/22 00:13:50;;;;;;;13.93;8.90;;;;;;;;;;4995777;28;20045;-84
2023/05/22 00:16:16;;;;;;;13.13;7.63;;;;;;;;;;5009947;28;20232;-83
2023/05/22 00:18:43;;;;;;;17.27;9.13;;;;;;;;;;5010635;28;20510;-82
2023/05/22 00:21:10;;;;;;;15.18;8.90;;;;;;;;;;5008345;28;20046;-84
2023/05/22 00:23:37;;;;;;;15.00;8.88;;;;;;;;;;5011813;28;20101;-84
2023/05/22 00:26:13;;;;;;;15.80;8.95;;;;;;;;;;5010224;28;20284;-84
2023/05/22 00:28:40;;;;;;;15.98;10.20;;;;;;;;;;5015217;28;20057;-83
2023/05/22 00:31:09;;;;;;;14.23;9.77;;;;;;;;;;5006249;28;20053;-84
2023/05/22 00:33:37;;;;;;;16.30;9.43;;;;;;;;;;5011217;28;20261;-85
2023/05/22 00:36:04;;;;;;;14.32;9.55;;;;;;;;;;4994403;28;20046;-86
2023/05/22 00:38:32;;;;;;;17.00;10.00;;;;;;;;;;5010698;28;20057;-86
2023/05/22 00:40:59;;;;;;;20.00;10.13;;;;;;;;;;4992099;28;20057;-86
2023/05/22 00:43:28;;;;;;;20.42;9.75;;;;;;;;;;5008635;28;20566;-84
2023/05/22 00:46:00;;;;;;;20.17;10.27;;;;;;;;;;5008751;28;20440;-85
2023/05/22 00:48:26;;;;;;;16.42;9.68;;;;;;;;;;5009197;28;20096;-85
2023/05/22 00:50:54;;;;;;;18.08;10.40;;;;;;;;;;5009094;28;20061;-84
2023/05/22 00:53:23;;;;;;;17.27;9.60;;;;;;;;;;4977889;28;20053;-85
2023/05/22 00:55:51;;;;;;;21.05;10.15;;;;;;;;;;5010538;28;20054;-84
2023/05/22 00:58:18;;;;;;;15.05;8.90;;;;;;;;;;4977883;28;20057;-84
2023/05/22 01:00:46;;;;;;;15.02;9.38;;;;;;;;;;5012995;28;20081;-82
2023/05/22 01:03:14;;;;;;;13.63;8.77;;;;;;;;;;5007870;28;20553;-85
2023/05/22 01:05:42;;;;;;;17.98;9.20;;;;;;;;;;5009299;28;20064;-85
2023/05/22 01:08:08;;;;;;;16.15;9.07;;;;;;;;;;5012334;28;20050;-84
2023/05/22 01:10:38;;;;;;;13.80;8.73;;;;;;;;;;5011772;28;20161;-85
2023/05/22 01:13:13;;;;;;;17.85;9.40;;;;;;;;;;5012916;28;20053;-85
2023/05/22 01:15:50;;;;;;;16.20;9.40;;;;;;;;;;5011668;28;20052;-85
2023/05/22 01:18:30;;;;;;;16.50;9.50;;;;;;;;;;5011608;28;20152;-84
2023/05/22 01:21:20;;;;;;;13.35;8.75;;;;;;;;;;5007888;28;20125;-83
2023/05/22 01:24:10;;;;;;;17.10;9.57;;;;;;;;;;5009254;28;20136;-83
2023/05/22 01:26:37;;;;;;;16.63;9.75;;;;;;;;;;4977610;28;20089;-84
2023/05/22 01:29:22;;;;;;;18.45;9.88;;;;;;;;;;5008723;28;20060;-84
2023/05/22 01:31:49;;;;;;;15.07;9.18;;;;;;;;;;5017044;28;20053;-85
2023/05/22 01:34:17;;;;;;;14.93;9.55;;;;;;;;;;5010456;28;20054;-85
2023/05/22 01:36:45;;;;;;;16.88;9.98;;;;;;;;;;5008524;28;20408;-84
2023/05/22 01:39:13;;;;;;;15.48;10.13;;;;;;;;;;5012490;28;20128;-85
2023/05/22 01:41:40;;;;;;;16.60;10.10;;;;;;;;;;5011705;28;20121;-85
2023/05/22 01:44:06;;;;;;;17.20;9.80;;;;;;;;;;4994610;28;20061;-85
2023/05/22 01:46:33;;;;;;;14.43;9.82;;;;;;;;;;5012124;28;20080;-86
2023/05/22 01:49:00;;;;;;;14.77;9.50;;;;;;;;;;5010990;28;20072;-85
2023/05/22 01:51:35;;;;;;;14.38;9.82;;;;;;;;;;4995913;28;20065;-85
2023/05/22 01:54:08;;;;;;;18.05;10.43;;;;;;;;;;5014967;28;20510;-85
2023/05/22 01:56:40;;;;;;;17.75;10.60;;;;;;;;;;5012606;28;20128;-85
2023/05/22 01:59:13;;;;;;;18.20;10.73;;;;;;;;;;5004522;28;20061;-84
2023/05/22 02:01:41;;;;;;;18.55;11.63;;;;;;;;;;4995415;28;20109;-84
2023/05/22 02:04:12;;;;;;;19.45;11.95;;;;;;;;;;5013414;28;20512;-85
2023/05/22 02:06:41;;;;;;;21.92;11.48;;;;;;;;;;4989618;28;20038;-85
2023/05/22 02:09:09;;;;;;;21.27;11.50;;;;;;;;;;4997003;28;20046;-85
2023/05/22 02:11:40;;;;;;;18.58;11.55;;;;;;;;;;4995789;28;20057;-84
2023/05/22 02:14:08;;;;;;;19.10;12.20;;;;;;;;;;4996906;28;20077;-85
2023/05/22 02:16:34;;;;;;;22.25;12.90;;;;;;;;;;4998762;28;20042;-84
2023/05/22 02:19:05;;;;;;;21.35;13.02;;;;;;;;;;4993559;28;20145;-83
2023/05/22 02:21:34;;;;;;;21.45;13.02;;;;;;;;;;4978723;28;20042;-85
2023/05/22 02:24:01;;;;;;;21.15;12.52;;;;;;;;;;4996921;28;20082;-84
2023/05/22 02:26:28;;;;;;;24.70;13.50;;;;;;;;;;4994249;28;20046;-84
2023/05/22 02:28:55;;;;;;;17.73;12.35;;;;;;;;;;4989433;28;20414;-85
2023/05/22 02:31:23;;;;;;;22.30;12.02;;;;;;;;;;5005576;28;20042;-84
2023/05/22 02:33:50;;;;;;;20.65;12.48;;;;;;;;;;5016232;28;20113;-84
2023/05/22 02:36:18;;;;;;;21.33;12.50;;;;;;;;;;4999728;28;20073;-85
2023/05/22 02:38:46;;;;;;;18.75;12.15;;;;;;;;;;5016340;28;20146;-84
2023/05/22 02:41:12;;;;;;;19.65;11.85;;;;;;;;;;4997577;28;20050;-86
2023/05/22 02:43:39;;;;;;;19.13;11.75;;;;;;;;;;5016392;28;20560;-85
2023/05/22 02:46:06;;;;;;;20.50;12.88;;;;;;;;;;5015800;28;20112;-85
2023/05/22 02:48:33;;;;;;;20.17;11.57;;;;;;;;;;5015929;28;20065;-85
2023/05/22 02:51:00;;;;;;;18.00;11.55;;;;;;;;;;5000208;28;20069;-84
2023/05/22 02:53:26;;;;;;;18.15;11.07;;;;;;;;;;5024472;28;20046;-85
2023/05/22 02:55:57;;;;;;;20.27;11.88;;;;;;;;;;5025683;28;20098;-85
2023/05/22 02:58:25;;;;;;;15.93;11.10;;;;;;;;;;5017640;28;20077;-84
2023/05/22 03:00:52;;;;;;;22.20;11.63;;;;;;;;;;5014691;28;20054;-85
2023/05/22 03:03:19;;;;;;;18.40;11.77;;;;;;;;;;5016595;28;20098;-85
2023/05/22 03:05:52;;;;;;;17.75;10.98;;;;;;;;;;5016774;28;20167;-85
2023/05/22 03:08:19;;;;;;;16.08;10.57;;;;;;;;;;5017945;28;20052;-85
2023/05/22 03:10:46;;;;;;;16.70;10.95;;;;;;;;;;5000565;28;20072;-85
2023/05/22 03:13:13;;;;;;;18.63;10.82;;;;;;;;;;5018064;28;20050;-84
2023/05/22 03:15:39;;;;;;;18.17;11.02;;;;;;;;;;5028200;28;20077;-85
2023/05/22 03:18:12;;;;;;;15.73;10.40;;;;;;;;;;5013983;28;20034;-85
2023/05/22 03:20:40;;;;;;;15.13;10.30;;;;;;;;;;5017484;28;20052;-84
2023/05/22 03:23:07;;;;;;;15.98;10.10;;;;;;;;;;5012723;28;20045;-84
2023/05/22 03:25:34;;;;;;;15.15;10.50;;;;;;;;;;5012645;28;20486;-84
2023/05/22 03:28:01;;;;;;;15.57;10.77;;;;;;;;;;4995660;28;20051;-85
2023/05/22 03:30:32;;;;;;;20.73;11.00;;;;;;;;;;5012945;28;20064;-84
2023/05/22 03:33:08;;;;;;;20.00;10.65;;;;;;;;;;4992289;28;20591;-84
2023/05/22 03:35:35;;;;;;;16.20;11.23;;;;;;;;;;4992038;28;20046;-84
2023/05/22 03:38:02;;;;;;;17.50;11.52;;;;;;;;;;4991531;28;20113;-85
2023/05/22 03:40:29;;;;;;;15.77;10.52;;;;;;;;;;4990735;28;20122;-85
2023/05/22 03:42:56;;;;;;;16.70;11.05;;;;;;;;;;4975836;28;20372;-85
2023/05/22 03:45:23;;;;;;;15.98;10.38;;;;;;;;;;4975341;28;20447;-85
2023/05/22 03:47:49;;;;;;;18.25;11.73;;;;;;;;;;4991876;28;20046;-85
2023/05/22 03:50:16;;;;;;;15.35;10.45;;;;;;;;;;4992648;28;20502;-84
2023/05/22 03:52:43;;;;;;;20.10;11.23;;;;;;;;;;4983561;28;20038;-84
2023/05/22 03:55:10;;;;;;;14.35;10.50;;;;;;;;;;4991625;28;20054;-83
2023/05/22 03:57:37;;;;;;;17.77;11.35;;;;;;;;;;4991953;28;20053;-85
2023/05/22 04:00:08;;;;;;;15.70;10.20;;;;;;;;;;4995329;28;20081;-85
2023/05/22 04:02:38;;;;;;;16.70;10.93;;;;;;;;;;5008745;28;20094;-84
2023/05/22 04:05:06;;;;;;;15.82;10.63;;;;;;;;;;4993768;28;20470;-86
2023/05/22 04:07:33;;;;;;;15.80;10.60;;;;;;;;;;4991593;28;20101;-86
2023/05/22 04:10:00;;;;;;;13.38;9.68;;;;;;;;;;4992070;28;20042;-83
2023/05/22 04:12:26;;;;;;;15.38;9.80;;;;;;;;;;4974231;28;20488;-85
2023/05/22 04:14:53;;;;;;;17.95;10.63;;;;;;;;;;4989809;28;20046;-85
2023/05/22 04:17:19;;;;;;;17.65;10.25;;;;;;;;;;4973896;28;20105;-85
2023/05/22 04:19:49;;;;;;;18.85;10.60;;;;;;;;;;4987927;28;20049;-85
2023/05/22 04:22:21;;;;;;;14.23;10.18;;;;;;;;;;4989897;28;20396;-86
2023/05/22 04:24:48;;;;;;;20.42;11.90;;;;;;;;;;4973262;28;20109;-85
2023/05/22 04:27:15;;;;;;;16.92;9.95;;;;;;;;;;4989118;28;20066;-87
2023/05/22 04:29:43;;;;;;;21.33;10.35;;;;;;;;;;4999996;28;20053;-86
2023/05/22 04:32:10;;;;;;;16.52;10.07;;;;;;;;;;4987828;28;20601;-85
2023/05/22 04:34:36;;;;;;;15.93;10.00;;;;;;;;;;5003222;28;20114;-85
2023/05/22 04:37:04;;;;;;;15.18;9.85;;;;;;;;;;5001928;28;20049;-83
2023/05/22 04:39:30;;;;;;;19.17;9.23;;;;;;;;;;5008734;28;20092;-84
2023/05/22 04:41:57;;;;;;;19.33;9.90;;;;;;;;;;5009854;28;20124;-84
2023/05/22 04:44:24;;;;;;;19.73;10.10;;;;;;;;;;5009143;28;20423;-85
2023/05/22 04:46:50;;;;;;;14.30;9.57;;;;;;;;;;5010310;28;20104;-85
2023/05/22 04:49:17;;;;;;;20.30;10.32;;;;;;;;;;5008596;28;20050;-84
2023/05/22 04:51:44;;;;;;;18.65;9.07;;;;;;;;;;5009405;28;20045;-84
2023/05/22 04:54:10;;;;;;;14.65;8.77;;;;;;;;;;4994155;28;20098;-84
2023/05/22 04:56:38;;;;;;;16.02;8.93;;;;;;;;;;5020443;28;20112;-82
2023/05/22 04:59:07;;;;;;;18.63;8.95;;;;;;;;;;5014377;28;20056;-84
2023/05/22 05:01:34;;;;;;;14.77;8.55;;;;;;;;;;5030412;28;20046;-82
2023/05/22 05:04:04;;;;;;;13.93;8.80;;;;;;;;;;5011072;28;20073;-83
2023/05/22 05:06:30;;;;;;;15.27;8.85;;;;;;;;;;5014430;28;20046;-83
2023/05/22 05:08:57;;;;;;;13.90;8.05;;;;;;;;;;5010410;28;20065;-83
2023/05/22 05:11:24;;;;;;;16.23;8.30;;;;;;;;;;5008564;28;20226;-84
2023/05/22 05:14:12;;;;;;;15.90;7.78;;;;;;;;;;4996587;28;20053;-86
2023/05/22 05:17:31;;;;;;;13.98;7.97;;;;;;;;;;4992182;28;20124;-84
2023/05/22 05:20:13;;;;;;;16.45;7.93;;;;;;;;;;4965165;28;20051;-82
2023/05/22 05:22:44;;;;;;;12.20;7.20;;;;;;;;;;5004455;28;20048;-81
2023/05/22 05:25:12;;;;;;;17.80;7.30;;;;;;;;;;4990395;28;20433;-82
2023/05/22 05:27:39;;;;;;;15.20;7.88;;;;;;;;;;5007832;28;20387;-83
2023/05/22 05:30:06;;;;;;;14.73;8.00;;;;;;;;;;4994551;28;20042;-83
2023/05/22 05:32:53;;;;;;;12.05;6.72;;;;;;;;;;5001950;28;20056;-86
2023/05/22 05:35:25;;;;;;;12.90;6.97;;;;;;;;;;4987768;28;20510;-84
2023/05/22 05:38:05;;;;;;;18.42;7.13;;;;;;;;;;4988762;28;20038;-84
2023/05/22 05:40:34;;;;;;;17.58;7.43;;;;;;;;;;4989508;28;20269;-83
2023/05/22 05:43:02;;;;;;;15.02;7.22;;;;;;;;;;4996949;28;20064;-82
2023/05/22 05:45:29;;;;;;;13.05;6.80;;;;;;;;;;5013979;28;20050;-81
2023/05/22 05:47:56;;;;;;;11.15;6.93;;;;;;;;;;5008681;28;20057;-82
2023/05/22 05:50:23;;;;;;;14.25;6.80;;;;;;;;;;5007129;28;20065;-82
2023/05/22 05:52:50;;;;;;;11.57;6.85;;;;;;;;;;4992300;28;20093;-85
2023/05/22 05:55:20;;;;;;;13.27;6.43;;;;;;;;;;5008459;28;20088;-82
2023/05/22 05:57:47;;;;;;;17.15;6.68;;;;;;;;;;5008014;28;20054;-83
2023/05/22 06:00:22;;;;;;;14.15;6.70;;;;;;;;;;5004902;28;20046;-82
2023/05/22 06:02:50;;;;;;;11.77;6.85;;;;;;;;;;5005228;28;20120;-84
2023/05/22 06:05:46;;;;;;;10.00;6.07;;;;;;;;;;4991857;28;20495;-84
2023/05/22 06:08:41;;;;;;;11.48;6.00;;;;;;;;;;4990068;28;20430;-82
2023/05/22 06:11:08;;;;;;;9.52;5.60;;;;;;;;;;5005295;28;20057;-83
2023/05/22 06:13:37;;;;;;;12.90;5.80;;;;;;;;;;4991983;28;20039;-83
2023/05/22 06:16:04;;;;;;;10.82;6.45;;;;;;;;;;4975400;28;20078;-82
2023/05/22 06:18:33;;;;;;;12.23;6.38;;;;;;;;;;4991347;28;20530;-82
2023/05/22 06:20:59;;;;;;;11.80;6.72;;;;;;;;;;4990002;28;20052;-85
2023/05/22 06:23:26;;;;;;;12.35;5.80;;;;;;;;;;4990271;28;20042;-83
2023/05/22 06:25:54;;;;;;;11.15;5.63;;;;;;;;;;5006665;28;20474;-86
2023/05/22 06:28:22;;;;;;;15.38;6.28;;;;;;;;;;4991765;28;20109;-85
2023/05/22 06:30:49;;;;;;;11.80;5.82;;;;;;;;;;4989492;28;20103;-83
2023/05/22 06:33:20;;;;;;;13.63;5.90;;;;;;;;;;4987567;28;20049;-83
2023/05/22 06:35:49;;;;;;;12.38;5.72;;;;;;;;;;5007744;28;20115;-82
2023/05/22 06:38:16;;;;;;;13.52;6.65;;;;;;;;;;4991302;28;20053;-85
2023/05/22 06:40:43;;;;;;;17.13;6.13;;;;;;;;;;5009168;28;20046;-84
2023/05/22 06:43:19;;;;;;;9.88;5.93;;;;;;;;;;4983192;28;20204;-83
2023/05/22 06:50:21;;;;;;;10.35;5.32;;;;;;;;;;4947336;28;20042;-83
2023/05/22 06:53:30;;;;;;;8.82;5.88;;;;;;;;;;4980170;28;20598;-84
2023/05/22 06:56:50;;;;;;;;;;;;;;;;;;;;;
2023/05/22 07:03:22;;;;;;;17.50;5.03;;;;;;;;;;4950194;28;20086;-84
2023/05/22 07:07:02;;;;;;;9.30;5.50;;;;;;;;;;4944742;28;20057;-85
2023/05/22 07:09:55;;;;;;;;;;;;;;;;;;;;;
2023/05/22 07:17:07;;;;;;;;;;;;;;;;;;;;;
2023/05/22 07:20:28;;;;;;;14.75;5.10;;;;;;;;;;4880523;28;20036;-85
2023/05/22 07:23:19;;;;;;;10.90;4.90;;;;;;;;;;4903669;28;20052;-84
2023/05/22 07:26:08;;;;;;;10.93;5.30;;;;;;;;;;4908991;28;20305;-85
2023/05/22 07:29:02;;;;;;;14.07;5.38;;;;;;;;;;4933906;28;20050;-87
2023/05/22 07:31:33;;;;;;;11.65;5.07;;;;;;;;;;4920726;28;20619;-87
2023/05/22 07:34:00;;;;;;;9.60;4.88;;;;;;;;;;4936149;28;20044;-84
2023/05/22 07:36:28;;;;;;;7.05;4.32;;;;;;;;;;4936219;28;20047;-84
2023/05/22 07:39:08;;;;;;;14.45;5.15;;;;;;;;;;4932844;28;20133;-83
2023/05/22 07:41:51;;;;;;;12.30;4.65;;;;;;;;;;4955075;28;20503;-86
2023/05/22 07:44:40;;;;;;;8.30;5.00;;;;;;;;;;4976079;28;20045;-87
2023/05/22 07:47:33;;;;;;;8.85;4.80;;;;;;;;;;4961374;28;20069;-86
2023/05/22 07:50:29;;;;;;;9.20;4.60;;;;;;;;;;4978927;28;20292;-84
2023/05/22 07:53:41;;;;;;;14.50;4.65;;;;;;;;;;4989188;28;20038;-84
2023/05/22 07:59:25;;;;;;;8.93;4.65;;;;;;;;;;4972583;28;20060;-88
2023/05/22 08:02:01;;;;;;;12.77;4.70;;;;;;;;;;4966034;28;20133;-85
2023/05/22 08:04:34;;;;;;;9.57;4.60;;;;;;;;;;4963926;28;20130;-82
2023/05/22 08:07:04;;;;;;;12.07;4.75;;;;;;;;;;4975919;28;20066;-83
2023/05/22 08:09:31;;;;;;;12.57;4.63;;;;;;;;;;4990270;28;20065;-83
2023/05/22 08:11:57;;;;;;;9.57;4.90;;;;;;;;;;4988132;28;20057;-87
2023/05/22 08:14:24;;;;;;;12.43;4.50;;;;;;;;;;4987523;28;20045;-84
2023/05/22 08:16:51;;;;;;;10.77;4.95;;;;;;;;;;4987022;28;20050;-86
2023/05/22 08:19:18;;;;;;;9.18;4.47;;;;;;;;;;4986527;28;20049;-84
2023/05/22 08:21:51;;;;;;;10.75;4.85;;;;;;;;;;4987116;28;20038;-86
2023/05/22 08:24:18;;;;;;;6.15;4.03;;;;;;;;;;4972605;28;20049;-85
2023/05/22 08:26:45;;;;;;;10.63;4.65;;;;;;;;;;4988626;28;20432;-86
2023/05/22 08:29:29;;;;;;;10.93;4.55;;;;;;;;;;4979767;28;20120;-85
2023/05/22 08:32:14;;;;;;;8.52;4.63;;;;;;;;;;4956103;28;20038;-85
2023/05/22 08:34:46;;;;;;;10.07;4.55;;;;;;;;;;4996593;28;20042;-85
2023/05/22 08:37:31;;;;;;;8.43;4.78;;;;;;;;;;4978711;28;20046;-83
2023/05/22 08:40:46;;;;;;;8.20;4.90;;;;;;;;;;4969701;28;20405;-83
2023/05/22 08:43:14;;;;;;;11.75;4.30;;;;;;;;;;4989555;28;20042;-86
2023/05/22 08:45:42;;;;;;;8.25;4.72;;;;;;;;;;4987620;28;20499;-83
2023/05/22 08:48:11;;;;;;;7.38;4.20;;;;;;;;;;5003766;28;20053;-88
2023/05/22 08:50:43;;;;;;;6.78;4.22;;;;;;;;;;4985742;28;20077;-85
2023/05/22 08:53:13;;;;;;;9.60;3.92;;;;;;;;;;4987498;28;20056;-83
2023/05/22 08:55:41;;;;;;;7.72;4.30;;;;;;;;;;4988148;28;20045;-85
2023/05/22 08:58:08;;;;;;;7.30;4.20;;;;;;;;;;4991129;28;20050;-86
2023/05/22 09:00:35;;;;;;;7.47;3.63;;;;;;;;;;5004069;28;20065;-88
2023/05/22 09:03:05;;;;;;;7.25;4.30;;;;;;;;;;4987552;28;20301;-83
2023/05/22 09:05:33;;;;;;;13.00;4.30;;;;;;;;;;4979548;28;20069;-85
2023/05/22 09:08:01;;;;;;;8.57;4.53;;;;;;;;;;4985713;28;20054;-88
2023/05/22 09:10:45;;;;;;;12.25;4.22;;;;;;;;;;5000989;28;20038;-85
2023/05/22 09:13:21;;;;;;;11.38;4.32;;;;;;;;;;4987809;28;20537;-86
2023/05/22 09:15:48;;;;;;;10.73;4.38;;;;;;;;;;4986940;28;20145;-87
2023/05/22 09:18:15;;;;;;;8.02;4.13;;;;;;;;;;5004384;28;20042;-86
2023/05/22 09:24:00;;;;;;;11.07;3.92;;;;;;;;;;5001207;28;20050;-85
2023/05/22 09:26:31;;;;;;;8.55;4.28;;;;;;;;;;4982276;28;20082;-87
2023/05/22 09:28:58;;;;;;;6.32;3.90;;;;;;;;;;4960398;28;20042;-83
2023/05/22 09:31:28;;;;;;;8.95;3.65;;;;;;;;;;5008487;28;20140;-83
2023/05/22 09:33:58;;;;;;;6.43;3.60;;;;;;;;;;5026811;28;20404;-85
2023/05/22 09:36:34;;;;;;;11.57;3.65;;;;;;;;;;5027347;28;20428;-83
2023/05/22 09:39:00;;;;;;;;;;;;;;;;;;5026464;28;20049;-82
2023/05/22 09:41:29;;;;;;;10.50;3.42;;;;;;;;;;5009135;28;19927;-87
2023/05/22 09:43:56;;;;;;;7.63;3.45;;;;;;;;;;5028018;28;20045;-86
2023/05/22 09:46:25;;;;;;;9.73;3.60;;;;;;;;;;5028637;28;20037;-84
2023/05/22 09:48:52;;;;;;;6.10;3.30;;;;;;;;;;5032138;28;20088;-86
2023/05/22 09:51:22;;;;;;;8.27;3.10;;;;;;;;;;5028453;28;20304;-83
2023/05/22 09:53:50;;;;;;;7.80;3.30;;;;;;;;;;5030501;28;20053;-86
2023/05/22 09:56:17;;;;;;;9.73;3.40;;;;;;;;;;5029255;28;20050;-85
2023/05/22 09:59:03;;;;;;;7.60;3.20;;;;;;;;;;5029067;28;20468;-86
2023/05/22 10:01:30;;;;;;;5.10;3.20;;;;;;;;;;5029526;28;22246;-84
2023/05/22 10:03:57;;;;;;;7.72;3.42;;;;;;;;;;5016871;28;20042;-84
2023/05/22 10:06:26;;;;;;;5.63;2.78;;;;;;;;;;5027164;28;20065;-84
2023/05/22 10:08:58;;;;;;;9.15;3.38;;;;;;;;;;5028904;28;20112;-85
2023/05/22 10:11:28;;;;;;;6.43;2.90;;;;;;;;;;5026988;28;20145;-84
2023/05/22 10:13:57;;;;;;;11.80;3.50;;;;;;;;;;5029422;28;20042;-85
2023/05/22 10:16:24;;;;;;;9.57;3.35;;;;;;;;;;5025582;28;20056;-82
2023/05/22 10:18:52;;;;;;;9.52;3.15;;;;;;;;;;5024383;28;20067;-85
2023/05/22 10:21:19;;;;;;;7.82;3.47;;;;;;;;;;5025129;28;20116;-88
2023/05/22 10:23:47;;;;;;;5.95;3.05;;;;;;;;;;5026450;28;20445;-83
2023/05/22 10:26:14;;;;;;;7.30;3.45;;;;;;;;;;5028053;28;20038;-84
2023/05/22 10:28:43;;;;;;;8.35;3.17;;;;;;;;;;5026141;28;20052;-85
2023/05/22 10:31:13;;;;;;;10.93;3.78;;;;;;;;;;5007889;28;20105;-84
2023/05/22 10:33:41;;;;;;;7.90;3.70;;;;;;;;;;5010769;28;20095;-85
2023/05/22 10:36:12;;;;;;;10.20;3.50;;;;;;;;;;4992680;28;20066;-83
2023/05/22 10:38:57;;;;;;;10.77;3.47;;;;;;;;;;5010090;28;20064;-84
2023/05/22 10:41:25;;;;;;;5.93;3.45;;;;;;;;;;5008026;28;20366;-83
2023/05/22 10:43:54;;;;;;;9.77;3.10;;;;;;;;;;4995688;28;20814;-83
2023/05/22 10:46:21;;;;;;;8.20;3.10;;;;;;;;;;5011387;28;20042;-83
2023/05/22 10:48:50;;;;;;;8.40;3.40;;;;;;;;;;4993045;28;20084;-82
2023/05/22 10:51:18;;;;;;;8.48;3.40;;;;;;;;;;5009752;28;20046;-83
2023/05/22 10:53:51;;;;;;;8.25;3.30;;;;;;;;;;5010843;28;20502;-85
2023/05/22 10:56:18;;;;;;;7.47;3.42;;;;;;;;;;5011835;28;20049;-82
2023/05/22 10:58:57;;;;;;;12.23;3.72;;;;;;;;;;5011262;28;20049;-84
2023/05/22 11:01:25;;;;;;;13.05;3.20;;;;;;;;;;4994548;28;20133;-85
2023/05/22 11:03:57;;;;;;;7.00;3.40;;;;;;;;;;5012130;28;20076;-85
2023/05/22 11:06:36;;;;;;;11.02;3.72;;;;;;;;;;5008632;28;20145;-86
2023/05/22 11:09:15;;;;;;;8.45;3.25;;;;;;;;;;5007233;28;20457;-84
2023/05/22 11:11:41;;;;;;;8.05;3.35;;;;;;;;;;5007285;28;20046;-83
2023/05/22 11:14:09;;;;;;;6.90;3.17;;;;;;;;;;5010264;28;20038;-85
2023/05/22 11:16:37;;;;;;;5.30;3.05;;;;;;;;;;4996406;28;20081;-85
2023/05/22 11:19:07;;;;;;;11.65;3.50;;;;;;;;;;5021359;28;20110;-84
2023/05/22 11:21:49;;;;;;;11.10;3.53;;;;;;;;;;5027026;28;20053;-84
2023/05/22 11:24:16;;;;;;;8.65;3.40;;;;;;;;;;5029068;28;20045;-85
2023/05/22 11:26:59;;;;;;;8.40;3.65;;;;;;;;;;5014397;28;20514;-83
2023/05/22 11:29:26;;;;;;;7.72;3.67;;;;;;;;;;4995528;28;20054;-83
2023/05/22 11:31:53;;;;;;;5.22;3.10;;;;;;;;;;5000864;28;20056;-83
2023/05/22 11:34:20;;;;;;;6.75;3.30;;;;;;;;;;5028229;28;20049;-85
2023/05/22 11:36:47;;;;;;;8.95;3.40;;;;;;;;;;5030838;28;20531;-81
2023/05/22 11:39:14;;;;;;;10.48;3.10;;;;;;;;;;5031955;28;20109;-84
2023/05/22 11:41:40;;;;;;;5.15;3.40;;;;;;;;;;5030228;28;20077;-86
2023/05/22 11:44:07;;;;;;;7.10;3.20;;;;;;;;;;5016084;28;20129;-84
2023/05/22 11:46:33;;;;;;;9.98;3.20;;;;;;;;;;5031308;28;20045;-84
2023/05/22 11:49:01;;;;;;;5.25;2.85;;;;;;;;;;5013824;28;20076;-87
2023/05/22 11:51:30;;;;;;;6.80;3.08;;;;;;;;;;5032535;28;20056;-85
2023/05/22 11:54:00;;;;;;;9.52;2.63;;;;;;;;;;5034808;28;20054;-83
2023/05/22 11:56:26;;;;;;;4.38;3.00;;;;;;;;;;5029028;28;20052;-85
2023/05/22 11:58:53;;;;;;;8.93;3.17;;;;;;;;;;5030632;28;20053;-84
2023/05/22 12:01:20;;;;;;;6.15;3.50;;;;;;;;;;5029626;28;20046;-83
2023/05/22 12:03:46;;;;;;;4.95;3.00;;;;;;;;;;5030486;28;20045;-79
2023/05/22 12:06:13;;;;;;;6.00;3.10;;;;;;;;;;5034093;28;20063;-82
2023/05/22 12:08:42;;;;;;;4.53;3.10;;;;;;;;;;5031123;28;20045;-83
2023/05/22 12:11:10;;;;;;;8.98;3.00;;;;;;;;;;5016438;28;20065;-83
2023/05/22 12:13:37;;;;;;;8.93;3.38;;;;;;;;;;5032107;28;20072;-84
2023/05/22 12:16:16;;;;;;;6.97;3.13;;;;;;;;;;5033632;28;20100;-86
2023/05/22 12:18:43;;;;;;;5.60;3.03;;;;;;;;;;5032711;28;20092;-83
2023/05/22 12:21:09;;;;;;;9.38;3.42;;;;;;;;;;5027444;28;20053;-86
2023/05/22 12:23:46;;;;;;;5.28;2.85;;;;;;;;;;5012570;28;20091;-86
2023/05/22 12:26:18;;;;;;;10.10;3.28;;;;;;;;;;5026985;28;20045;-86
2023/05/22 12:28:45;;;;;;;7.50;3.00;;;;;;;;;;5023926;28;20037;-83
2023/05/22 12:31:18;;;;;;;4.50;3.03;;;;;;;;;;5018476;28;20059;-85
2023/05/22 12:33:45;;;;;;;6.75;3.05;;;;;;;;;;5009932;28;20041;-85
2023/05/22 12:36:12;;;;;;;7.65;3.10;;;;;;;;;;5016774;28;20107;-85
2023/05/22 12:38:39;;;;;;;6.32;3.08;;;;;;;;;;5009445;28;20311;-86
2023/05/22 12:41:06;;;;;;;10.13;3.10;;;;;;;;;;5005704;28;20430;-85
2023/05/22 12:43:34;;;;;;;5.53;2.90;;;;;;;;;;5009578;28;20133;-84
2023/05/22 12:46:01;;;;;;;9.48;3.20;;;;;;;;;;5008858;28;20454;-83
2023/05/22 12:48:30;;;;;;;7.47;3.10;;;;;;;;;;5009071;28;20105;-81
2023/05/22 12:50:59;;;;;;;7.45;3.47;;;;;;;;;;5010734;28;20050;-84
2023/05/22 12:53:27;;;;;;;9.82;3.30;;;;;;;;;;5010591;28;20120;-88
2023/05/22 12:55:53;;;;;;;11.45;3.25;;;;;;;;;;5011679;28;20053;-87
2023/05/22 12:58:20;;;;;;;8.13;3.30;;;;;;;;;;5014080;28;20045;-88
2023/05/22 13:00:47;;;;;;;8.43;3.05;;;;;;;;;;5012777;28;20088;-85
2023/05/22 13:03:13;;;;;;;9.80;3.42;;;;;;;;;;5009728;28;20048;-85
2023/05/22 13:05:40;;;;;;;9.32;3.47;;;;;;;;;;5010602;28;20044;-82
2023/05/22 13:08:07;;;;;;;5.45;3.10;;;;;;;;;;5012128;28;20038;-87
2023/05/22 13:10:34;;;;;;;9.88;3.33;;;;;;;;;;5011650;28;20137;-84
2023/05/22 13:13:01;;;;;;;9.68;2.97;;;;;;;;;;5013353;28;20070;-83
2023/05/22 13:15:28;;;;;;;6.95;3.45;;;;;;;;;;5011041;28;20092;-85
2023/05/22 13:17:55;;;;;;;6.28;3.25;;;;;;;;;;5012064;28;20042;-85
2023/05/22 13:20:22;;;;;;;7.85;3.25;;;;;;;;;;4993572;28;20041;-84
2023/05/22 13:22:49;;;;;;;7.63;3.60;;;;;;;;;;4998348;28;20053;-84
2023/05/22 13:25:17;;;;;;;6.13;3.17;;;;;;;;;;5014173;28;20045;-72
2023/05/22 13:27:45;;;;;;;5.18;3.50;;;;;;;;;;5010571;28;20117;-72
2023/05/22 13:30:12;;;;;;;7.35;3.00;;;;;;;;;;5012341;28;20413;-69
2023/05/22 13:32:38;;;;;;;7.32;3.30;;;;;;;;;;5010859;28;20442;-72
2023/05/22 13:35:05;;;;;;;3.92;3.20;;;;;;;;;;5005686;28;20054;-71
2023/05/22 13:37:32;;;;;;;4.70;3.38;;;;;;;;;;5007298;28;20049;-72
2023/05/22 13:39:59;;;;;;;7.60;3.28;;;;;;;;;;5004276;28;20080;-70
2023/05/22 13:42:26;;;;;;;9.70;3.70;;;;;;;;;;5005013;28;20072;-72
2023/05/22 13:44:52;;;;;;;8.20;3.50;;;;;;;;;;5006030;28;20072;-72
2023/05/22 13:47:19;;;;;;;8.70;3.05;;;;;;;;;;5004965;28;20037;-72
2023/05/22 13:49:46;;;;;;;6.90;3.45;;;;;;;;;;5004326;28;20048;-73
2023/05/22 13:52:12;;;;;;;8.13;3.10;;;;;;;;;;5005180;28;20112;-73
2023/05/22 13:54:39;;;;;;;7.57;3.20;;;;;;;;;;4993368;28;20190;-72
2023/05/22 13:57:06;;;;;;;9.52;3.35;;;;;;;;;;4970224;28;20110;-72
2023/05/22 13:59:32;;;;;;;8.73;3.38;;;;;;;;;;4997775;28;20046;-72
2023/05/22 14:01:59;;;;;;;5.38;3.30;;;;;;;;;;5008458;28;20097;-72
2023/05/22 14:04:26;;;;;;;15.40;3.38;;;;;;;;;;5010026;28;20058;-72
2023/05/22 14:06:55;;;;;;;7.05;3.28;;;;;;;;;;5009449;28;20148;-73
2023/05/22 14:09:21;;;;;;;11.43;3.30;;;;;;;;;;5009068;28;20556;-71
2023/05/22 14:11:48;;;;;;;9.13;3.30;;;;;;;;;;5008025;28;20426;-72
2023/05/22 14:14:15;;;;;;;8.15;3.22;;;;;;;;;;5009295;28;20317;-72
2023/05/22 14:16:41;;;;;;;7.60;3.47;;;;;;;;;;5008846;28;20502;-72
2023/05/22 14:19:08;;;;;;;5.70;3.45;;;;;;;;;;5009654;28;20038;-73
2023/05/22 14:21:35;;;;;;;4.60;2.97;;;;;;;;;;5006427;28;20045;-72
2023/05/22 14:24:03;;;;;;;8.18;3.72;;;;;;;;;;5010130;28;20053;-71
2023/05/22 14:26:30;;;;;;;7.88;3.10;;;;;;;;;;5008773;28;20113;-72
2023/05/22 14:28:56;;;;;;;5.85;3.00;;;;;;;;;;5012877;28;20213;-72
2023/05/22 14:31:25;;;;;;;7.82;3.03;;;;;;;;;;5008860;28;20042;-72
2023/05/22 14:33:52;;;;;;;10.73;3.55;;;;;;;;;;5027434;28;20049;-72
2023/05/22 14:36:18;;;;;;;14.82;3.35;;;;;;;;;;5026493;28;20074;-82
2023/05/22 14:38:45;;;;;;;5.40;3.13;;;;;;;;;;4991641;28;20367;-82
2023/05/22 14:41:12;;;;;;;6.13;3.30;;;;;;;;;;5008271;28;20132;-83
2023/05/22 14:43:39;;;;;;;4.20;3.10;;;;;;;;;;5011064;28;20101;-83
2023/05/22 14:46:06;;;;;;;4.50;2.90;;;;;;;;;;5010278;28;20050;-82
2023/05/22 14:48:32;;;;;;;7.43;3.05;;;;;;;;;;5010733;28;20038;-83
2023/05/22 14:50:59;;;;;;;8.57;3.42;;;;;;;;;;5013683;28;20056;-81
2023/05/22 14:53:29;;;;;;;6.75;2.92;;;;;;;;;;5015067;28;20165;-82
2023/05/22 14:55:55;;;;;;;5.80;3.33;;;;;;;;;;4999789;28;20045;-83
2023/05/22 14:58:22;;;;;;;10.63;3.17;;;;;;;;;;5023380;28;20034;-81
2023/05/22 15:00:49;;;;;;;9.43;3.15;;;;;;;;;;5005109;28;20069;-82
2023/05/22 15:03:17;;;;;;;6.45;3.13;;;;;;;;;;5014893;28;20038;-83
2023/05/22 15:05:44;;;;;;;6.20;2.95;;;;;;;;;;5015121;28;20042;-83
2023/05/22 15:08:11;;;;;;;6.85;3.30;;;;;;;;;;5013363;28;20042;-82
2023/05/22 15:10:37;;;;;;;9.07;3.28;;;;;;;;;;5011820;28;20046;-84
2023/05/22 15:13:04;;;;;;;6.40;3.15;;;;;;;;;;4995839;28;20129;-82
2023/05/22 15:15:30;;;;;;;9.27;3.30;;;;;;;;;;5010068;28;20061;-81